createdAt,value
2022-09-26T00:02:19.004Z,30.42
2022-09-26T00:04:45.691Z,29.02
2022-09-26T00:07:12.240Z,28.70
2022-09-26T00:09:38.758Z,31.00
2022-09-26T00:12:05.730Z,31.45
2022-09-26T00:14:32.292Z,29.65
2022-09-26T00:16:58.920Z,29.35
2022-09-26T00:19:25.670Z,29.37
2022-09-26T00:21:52.201Z,29.10
2022-09-26T00:24:18.758Z,27.50
2022-09-26T00:26:45.312Z,27.48
2022-09-26T00:29:12.193Z,26.92
2022-09-26T00:31:41.052Z,28.20
2022-09-26T00:34:07.650Z,28.85
2022-09-26T00:36:38.427Z,28.48
2022-09-26T00:39:06.890Z,29.02
2022-09-26T00:41:33.411Z,25.98
2022-09-26T00:43:59.951Z,24.90
2022-09-26T00:46:35.308Z,27.50
2022-09-26T00:49:04.555Z,27.17
2022-09-26T00:51:31.147Z,26.65
2022-09-26T00:53:57.703Z,23.67
2022-09-26T00:56:26.871Z,27.15
2022-09-26T00:59:08.907Z,27.20
2022-09-26T01:01:35.552Z,23.08
2022-09-26T01:04:02.722Z,25.70
2022-09-26T01:06:29.261Z,28.12
2022-09-26T01:08:57.449Z,27.58
2022-09-26T01:11:23.995Z,28.33
2022-09-26T01:13:53.875Z,24.15
2022-09-26T01:16:20.591Z,27.00
2022-09-26T01:18:47.835Z,27.30
2022-09-26T01:21:23.572Z,25.00
2022-09-26T01:24:18.131Z,24.40
2022-09-26T01:26:57.063Z,24.77
2022-09-26T01:29:53.830Z,23.20
2022-09-26T01:32:50.513Z,24.17
2022-09-26T01:35:43.513Z,22.60
2022-09-26T01:38:28.113Z,23.05
2022-09-26T01:41:20.140Z,22.35
2022-09-26T01:43:46.517Z,21.87
2022-09-26T01:46:25.135Z,25.10
2022-09-26T01:49:02.435Z,22.08
2022-09-26T01:52:00.404Z,20.50
2022-09-26T01:54:34.192Z,22.40
2022-09-26T01:57:00.736Z,22.23
2022-09-26T01:59:36.510Z,24.98
2022-09-26T02:02:06.725Z,22.40
2022-09-26T02:04:36.610Z,24.12
2022-09-26T02:07:16.858Z,24.55
2022-09-26T02:09:48.954Z,24.30
2022-09-26T02:12:20.055Z,20.98
2022-09-26T02:14:47.235Z,21.92
2022-09-26T02:17:16.761Z,22.67
2022-09-26T02:19:46.980Z,25.88
2022-09-26T02:22:13.534Z,26.60
2022-09-26T02:24:40.235Z,28.02
2022-09-26T02:27:07.450Z,25.83
2022-09-26T02:29:34.264Z,25.77
2022-09-26T02:32:15.534Z,24.10
2022-09-26T02:34:42.584Z,25.35
2022-09-26T02:37:09.150Z,25.58
2022-09-26T02:39:36.530Z,28.25
2022-09-26T02:42:28.290Z,26.77
2022-09-26T02:45:39.971Z,26.73
2022-09-26T02:48:44.887Z,27.95
2022-09-26T02:51:35.854Z,29.70
2022-09-26T02:54:27.050Z,27.10
2022-09-26T02:57:05.285Z,26.58
2022-09-26T02:59:44.567Z,27.65
2022-09-26T03:02:53.139Z,24.05
2022-09-26T03:05:23.856Z,24.92
2022-09-26T03:07:58.087Z,27.15
2022-09-26T03:10:24.830Z,28.35
2022-09-26T03:12:51.461Z,26.00
2022-09-26T03:15:18.204Z,26.83
2022-09-26T03:17:47.635Z,27.90
2022-09-26T03:20:16.094Z,24.12
2022-09-26T03:22:42.629Z,24.33
2022-09-26T03:25:15.109Z,29.65
2022-09-26T03:27:43.965Z,27.08
2022-09-26T03:30:14.215Z,30.45
2022-09-26T03:32:40.755Z,30.62
2022-09-26T03:35:08.250Z,32.88
2022-09-26T03:37:37.175Z,30.77
2022-09-26T03:40:04.596Z,28.83
2022-09-26T03:42:33.437Z,27.90
2022-09-26T03:45:04.286Z,32.28
2022-09-26T03:47:30.902Z,30.10
2022-09-26T03:49:57.487Z,30.60
2022-09-26T03:52:24.942Z,29.50
2022-09-26T03:54:51.545Z,29.52
2022-09-26T03:57:18.138Z,29.73
2022-09-26T03:59:44.697Z,28.42
2022-09-26T04:02:12.259Z,30.67
2022-09-26T04:04:38.890Z,30.70
2022-09-26T04:07:05.459Z,27.95
2022-09-26T04:09:32.452Z,29.35
2022-09-26T04:11:58.981Z,31.80
2022-09-26T04:14:26.467Z,31.77
2022-09-26T04:16:53.332Z,29.40
2022-09-26T04:19:19.942Z,28.95
2022-09-26T04:21:46.471Z,29.15
2022-09-26T04:24:16.763Z,31.48
2022-09-26T04:26:43.913Z,29.87
2022-09-26T04:29:10.558Z,29.35
2022-09-26T04:31:37.799Z,30.60
2022-09-26T04:34:05.123Z,31.90
2022-09-26T04:36:31.788Z,32.65
2022-09-26T04:39:00.601Z,31.50
2022-09-26T04:41:27.897Z,32.33
2022-09-26T04:43:54.933Z,33.10
2022-09-26T04:46:26.881Z,30.58
2022-09-26T04:48:58.254Z,32.65
2022-09-26T04:51:25.341Z,31.23
2022-09-26T04:53:51.963Z,28.98
2022-09-26T04:56:19.641Z,33.47
2022-09-26T04:58:46.805Z,30.05
2022-09-26T05:01:18.056Z,31.67
2022-09-26T05:03:44.766Z,31.05
2022-09-26T05:06:11.727Z,29.25
2022-09-26T05:08:39.603Z,33.75
2022-09-26T05:11:06.679Z,37.72
2022-09-26T05:13:34.284Z,36.97
2022-09-26T05:16:01.758Z,34.42
2022-09-26T05:18:30.507Z,30.95
2022-09-26T05:20:57.307Z,33.80
2022-09-26T05:23:44.957Z,32.50
2022-09-26T05:26:50.963Z,30.85
2022-09-26T05:29:19.494Z,31.87
2022-09-26T05:31:46.550Z,31.83
2022-09-26T05:34:19.178Z,31.35
2022-09-26T05:36:45.871Z,33.28
2022-09-26T05:39:33.219Z,36.60
2022-09-26T05:41:59.944Z,36.30
2022-09-26T05:44:27.555Z,35.92
2022-09-26T05:49:20.740Z,36.88
2022-09-26T05:51:47.441Z,36.38
2022-09-26T05:54:14.211Z,38.40
2022-09-26T05:56:40.825Z,36.33
2022-09-26T05:59:09.511Z,34.47
2022-09-26T06:01:36.524Z,37.70
2022-09-26T06:04:03.175Z,48.75
2022-09-26T06:06:32.622Z,39.70
2022-09-26T06:09:00.267Z,37.35
2022-09-26T06:11:33.089Z,39.50
2022-09-26T06:14:00.795Z,36.30
2022-09-26T06:16:27.698Z,32.38
2022-09-26T06:19:22.971Z,38.65
2022-09-26T06:21:50.412Z,37.42
2022-09-26T06:24:20.824Z,36.90
2022-09-26T06:26:47.352Z,33.30
2022-09-26T06:29:14.080Z,33.25
2022-09-26T06:31:40.860Z,39.43
2022-09-26T06:34:08.232Z,37.17
2022-09-26T06:36:37.085Z,33.00
2022-09-26T06:39:03.720Z,40.35
2022-09-26T06:41:30.542Z,37.97
2022-09-26T06:43:57.128Z,37.27
2022-09-26T06:46:23.744Z,38.50
2022-09-26T06:48:50.815Z,41.05
2022-09-26T06:51:19.940Z,37.00
2022-09-26T06:53:46.893Z,37.22
2022-09-26T06:56:13.638Z,43.97
2022-09-26T06:58:40.260Z,42.87
2022-09-26T07:01:07.361Z,40.10
2022-09-26T07:03:34.099Z,36.25
2022-09-26T07:06:01.689Z,36.80
2022-09-26T07:08:50.452Z,33.63
2022-09-26T07:11:41.864Z,34.53
2022-09-26T07:14:03.481Z,39.20
2022-09-26T07:16:30.487Z,41.45
2022-09-26T07:18:57.229Z,38.47
2022-09-26T07:21:24.347Z,38.08
2022-09-26T07:24:48.368Z,41.05
2022-09-26T07:27:19.081Z,37.47
2022-09-26T07:29:48.942Z,37.80
2022-09-26T07:32:15.627Z,37.35
2022-09-26T07:34:42.888Z,38.70
2022-09-26T07:37:09.648Z,38.63
2022-09-26T07:39:36.321Z,35.58
2022-09-26T07:42:04.682Z,39.63
2022-09-26T07:47:38.335Z,36.45
2022-09-26T07:50:14.508Z,34.92
2022-09-26T07:52:42.362Z,38.85
2022-09-26T07:55:09.905Z,38.10
2022-09-26T07:57:36.618Z,37.33
2022-09-26T08:00:13.432Z,34.80
2022-09-26T08:02:42.509Z,34.35
2022-09-26T08:05:12.471Z,32.97
2022-09-26T08:07:39.021Z,36.35
2022-09-26T08:10:06.365Z,35.00
2022-09-26T08:12:36.853Z,35.35
2022-09-26T08:15:06.443Z,35.42
2022-09-26T08:17:33.989Z,33.25
2022-09-26T08:20:02.205Z,31.00
2022-09-26T08:22:28.849Z,30.88
2022-09-26T08:24:56.666Z,32.97
2022-09-26T08:27:23.233Z,30.98
2022-09-26T08:29:51.051Z,30.25
2022-09-26T08:32:18.446Z,27.42
2022-09-26T08:34:45.134Z,27.02
2022-09-26T08:37:11.999Z,25.80
2022-09-26T08:39:39.330Z,19.08
2022-09-26T08:42:31.346Z,16.05
2022-09-26T08:45:47.673Z,15.75
2022-09-26T08:48:53.311Z,14.68
2022-09-26T08:51:32.881Z,12.15
2022-09-26T08:54:11.098Z,15.63
2022-09-26T08:56:40.831Z,16.27
2022-09-26T08:59:12.164Z,17.05
2022-09-26T09:01:41.046Z,12.25
2022-09-26T09:04:13.902Z,12.00
2022-09-26T09:06:40.591Z,13.15
2022-09-26T09:09:08.378Z,13.48
2022-09-26T09:11:51.199Z,12.40
2022-09-26T09:15:20.542Z,19.58
2022-09-26T09:17:47.979Z,12.05
2022-09-26T09:20:43.320Z,11.00
2022-09-26T09:23:12.743Z,12.20
2022-09-26T09:27:52.220Z,10.15
2022-09-26T09:29:11.853Z,19.05
2022-09-26T09:31:40.432Z,16.58
2022-09-26T09:34:11.585Z,17.20
2022-09-26T09:37:10.982Z,11.00
2022-09-26T09:39:40.162Z,12.27
2022-09-26T09:42:25.984Z,11.63
2022-09-26T09:45:15.427Z,10.45
2022-09-26T09:47:43.803Z,21.85
2022-09-26T09:50:30.599Z,12.77
2022-09-26T09:53:09.047Z,11.35
2022-09-26T09:55:42.778Z,12.00
2022-09-26T09:58:27.590Z,10.57
2022-09-26T10:01:02.726Z,10.48
2022-09-26T10:03:39.987Z,9.55
2022-09-26T10:06:44.410Z,7.47
2022-09-26T10:08:56.233Z,8.25
2022-09-26T10:11:29.052Z,8.30
2022-09-26T10:13:58.192Z,6.40
2022-09-26T10:16:25.171Z,8.40
2022-09-26T10:19:08.180Z,8.40
2022-09-26T10:21:40.787Z,12.63
2022-09-26T10:24:22.242Z,15.90
2022-09-26T10:26:50.283Z,6.35
2022-09-26T10:29:35.470Z,15.07
2022-09-26T10:32:02.110Z,20.37
2022-09-26T10:34:38.085Z,7.20
2022-09-26T10:37:23.092Z,13.23
2022-09-26T10:40:12.607Z,9.13
2022-09-26T10:42:40.123Z,9.13
2022-09-26T10:45:14.294Z,7.95
2022-09-26T10:47:41.290Z,7.40
2022-09-26T10:50:11.830Z,7.00
2022-09-26T10:52:45.814Z,7.82
2022-09-26T10:55:21.999Z,4.87
2022-09-26T10:57:59.975Z,5.15
2022-09-26T11:00:42.513Z,3.70
2022-09-26T11:03:14.286Z,4.00
2022-09-26T11:06:02.271Z,9.43
2022-09-26T11:08:33.711Z,6.83
2022-09-26T11:11:05.655Z,21.35
2022-09-26T11:13:40.164Z,7.60
2022-09-26T11:16:13.111Z,7.75
2022-09-26T11:18:50.059Z,18.12
2022-09-26T11:22:08.421Z,14.70
2022-09-26T11:25:06.758Z,13.07
2022-09-26T11:27:43.329Z,8.70
2022-09-26T11:30:15.511Z,10.23
2022-09-26T11:32:47.798Z,5.93
2022-09-26T11:35:21.126Z,14.68
2022-09-26T11:38:11.376Z,9.40
2022-09-26T11:41:13.733Z,14.27
2022-09-26T11:44:07.880Z,20.90
2022-09-26T11:46:47.498Z,17.67
2022-09-26T11:49:41.878Z,17.35
2022-09-26T11:52:46.833Z,4.72
2022-09-26T11:56:03.821Z,8.50
2022-09-26T11:59:06.345Z,6.45
2022-09-26T12:01:55.123Z,8.05
2022-09-26T12:07:16.393Z,19.62
2022-09-26T12:10:01.890Z,10.32
2022-09-26T12:12:34.912Z,9.55
2022-09-26T12:15:21.960Z,5.90
2022-09-26T12:18:04.194Z,9.50
2022-09-26T12:20:39.425Z,8.55
2022-09-26T12:23:28.605Z,4.72
2022-09-26T12:26:10.933Z,4.55
2022-09-26T12:28:50.087Z,6.68
2022-09-26T12:31:31.895Z,9.98
2022-09-26T12:34:07.341Z,8.27
2022-09-26T12:37:01.771Z,6.75
2022-09-26T12:39:34.286Z,12.37
2022-09-26T12:42:25.484Z,5.12
2022-09-26T12:45:22.127Z,12.55
2022-09-26T12:48:02.675Z,11.70
2022-09-26T12:50:54.065Z,22.05
2022-09-26T12:53:33.434Z,88.45
2022-09-26T12:56:18.236Z,8.60
2022-09-26T12:58:57.541Z,3.92
2022-09-26T13:01:48.819Z,12.13
2022-09-26T13:04:44.439Z,10.50
2022-09-26T13:07:35.103Z,8.48
2022-09-26T13:10:09.987Z,5.43
2022-09-26T13:12:46.838Z,5.75
2022-09-26T13:15:24.484Z,5.07
2022-09-26T13:17:53.842Z,3.42
2022-09-26T13:20:43.241Z,5.40
2022-09-26T13:23:31.287Z,3.78
2022-09-26T13:26:19.826Z,5.87
2022-09-26T13:29:13.300Z,4.95
2022-09-26T13:31:55.363Z,4.65
2022-09-26T13:34:28.273Z,3.47
2022-09-26T13:36:55.745Z,3.87
2022-09-26T13:39:40.632Z,5.82
2022-09-26T13:42:18.616Z,3.87
2022-09-26T13:44:49.493Z,4.37
2022-09-26T13:47:51.369Z,5.53
2022-09-26T13:50:26.131Z,12.15
2022-09-26T13:53:21.423Z,5.47
2022-09-26T13:56:44.078Z,4.32
2022-09-26T13:59:18.048Z,6.30
2022-09-26T14:02:18.674Z,5.10
2022-09-26T14:04:50.181Z,4.68
2022-09-26T14:07:52.087Z,4.80
2022-09-26T14:10:26.680Z,5.32
2022-09-26T14:13:07.969Z,4.60
2022-09-26T14:15:46.926Z,6.72
2022-09-26T14:18:28.290Z,4.93
2022-09-26T14:21:07.026Z,3.83
2022-09-26T14:24:13.669Z,3.80
2022-09-26T14:26:43.660Z,4.12
2022-09-26T14:32:23.456Z,5.97
2022-09-26T14:34:57.796Z,4.12
2022-09-26T14:37:24.440Z,6.35
2022-09-26T14:39:54.027Z,5.63
2022-09-26T14:42:26.270Z,5.90
2022-09-26T14:45:00.427Z,5.90
2022-09-26T14:47:28.298Z,6.70
2022-09-26T14:50:13.950Z,3.72
2022-09-26T14:52:40.503Z,4.78
2022-09-26T14:55:07.558Z,4.93
2022-09-26T14:57:35.198Z,5.15
2022-09-26T15:00:02.391Z,3.92
2022-09-26T15:02:40.187Z,5.43
2022-09-26T15:05:10.176Z,3.72
2022-09-26T15:07:42.542Z,4.87
2022-09-26T15:10:12.449Z,4.65
2022-09-26T15:12:54.934Z,4.62
2022-09-26T15:16:00.782Z,4.80
2022-09-26T15:18:35.652Z,4.78
2022-09-26T15:21:49.961Z,4.25
2022-09-26T15:24:35.872Z,5.03
2022-09-26T15:27:30.002Z,7.20
2022-09-26T15:30:04.456Z,4.35
2022-09-26T15:32:32.333Z,5.60
2022-09-26T15:35:00.503Z,5.07
2022-09-26T15:37:35.361Z,4.62
2022-09-26T15:40:23.124Z,5.37
2022-09-26T15:43:00.775Z,5.18
2022-09-26T15:45:46.534Z,4.70
2022-09-26T15:48:19.142Z,5.32
2022-09-26T15:51:11.253Z,6.00
2022-09-26T15:54:01.384Z,6.10
2022-09-26T15:56:47.401Z,6.40
2022-09-26T15:59:31.622Z,5.85
2022-09-26T16:01:58.295Z,7.60
2022-09-26T16:04:30.067Z,7.87
2022-09-26T16:07:27.028Z,7.40
2022-09-26T16:09:53.705Z,6.45
2022-09-26T16:12:22.582Z,8.97
2022-09-26T16:14:58.988Z,8.07
2022-09-26T16:17:26.490Z,8.80
2022-09-26T16:19:54.693Z,11.15
2022-09-26T16:22:40.327Z,7.93
2022-09-26T16:25:19.065Z,6.78
2022-09-26T16:27:46.204Z,7.37
2022-09-26T16:30:30.996Z,6.82
2022-09-26T16:33:03.204Z,6.65
2022-09-26T16:35:30.860Z,10.80
2022-09-26T16:40:30.544Z,14.48
2022-09-26T16:43:31.380Z,16.90
2022-09-26T16:46:03.624Z,10.48
2022-09-26T16:48:36.017Z,9.40
2022-09-26T16:51:41.646Z,5.65
2022-09-26T16:54:08.056Z,6.70
2022-09-26T16:56:44.209Z,7.30
2022-09-26T16:59:16.879Z,6.45
2022-09-26T17:01:54.147Z,7.43
2022-09-26T17:04:24.822Z,10.03
2022-09-26T17:06:51.544Z,9.32
2022-09-26T17:09:22.864Z,9.27
2022-09-26T17:11:51.351Z,10.98
2022-09-26T17:14:23.000Z,11.50
2022-09-26T17:16:56.582Z,11.30
2022-09-26T17:19:27.547Z,9.55
2022-09-26T17:21:54.962Z,9.85
2022-09-26T17:24:23.384Z,9.10
2022-09-26T17:26:58.070Z,10.05
2022-09-26T17:29:30.077Z,11.80
2022-09-26T17:31:57.437Z,18.27
2022-09-26T17:34:25.497Z,10.73
2022-09-26T17:36:52.384Z,11.63
2022-09-26T17:39:22.195Z,10.70
2022-09-26T17:41:49.980Z,10.60
2022-09-26T17:44:18.376Z,12.45
2022-09-26T17:46:48.992Z,10.98
2022-09-26T17:49:22.088Z,10.88
2022-09-26T17:51:49.153Z,13.35
2022-09-26T17:54:17.741Z,20.92
2022-09-26T17:56:44.427Z,12.60
2022-09-26T17:59:24.595Z,10.85
2022-09-26T18:01:53.056Z,13.05
2022-09-26T18:04:19.944Z,15.88
2022-09-26T18:06:46.524Z,19.60
2022-09-26T18:09:15.741Z,19.05
2022-09-26T18:11:54.299Z,18.62
2022-09-26T18:14:20.916Z,14.00
2022-09-26T18:16:47.477Z,17.20
2022-09-26T18:19:14.062Z,16.10
2022-09-26T18:21:40.832Z,25.23
2022-09-26T18:24:10.903Z,19.03
2022-09-26T18:26:47.405Z,24.50
2022-09-26T18:29:16.134Z,21.73
2022-09-26T18:31:44.425Z,18.80
2022-09-26T18:34:18.613Z,17.60
2022-09-26T18:36:45.248Z,17.30
2022-09-26T18:39:12.104Z,17.87
2022-09-26T18:41:39.529Z,14.85
2022-09-26T18:44:09.735Z,18.10
2022-09-26T18:46:37.747Z,16.20
2022-09-26T18:49:06.379Z,16.37
2022-09-26T18:51:33.068Z,18.23
2022-09-26T18:54:01.810Z,20.27
2022-09-26T18:56:46.878Z,19.87
2022-09-26T18:59:14.900Z,16.98
2022-09-26T19:01:42.823Z,17.70
2022-09-26T19:04:16.195Z,22.37
2022-09-26T19:06:43.601Z,16.25
2022-09-26T19:09:20.394Z,18.83
2022-09-26T19:11:47.199Z,21.60
2022-09-26T19:14:17.999Z,20.93
2022-09-26T19:16:45.786Z,19.50
2022-09-26T19:19:12.485Z,17.20
2022-09-26T19:21:42.977Z,20.25
2022-09-26T19:24:29.468Z,23.75
2022-09-26T19:26:58.308Z,21.35
2022-09-26T19:29:37.029Z,17.60
2022-09-26T19:34:32.706Z,30.65
2022-09-26T19:37:01.381Z,28.15
2022-09-26T19:39:28.103Z,23.75
2022-09-26T19:41:54.661Z,22.00
2022-09-26T19:44:21.226Z,20.02
2022-09-26T19:46:47.855Z,20.62
2022-09-26T19:49:16.905Z,20.60
2022-09-26T19:51:43.659Z,17.27
2022-09-26T19:54:15.298Z,21.83
2022-09-26T19:56:43.089Z,20.05
2022-09-26T19:59:17.251Z,23.62
2022-09-26T20:01:48.468Z,23.42
2022-09-26T20:04:17.923Z,23.75
2022-09-26T20:06:45.091Z,24.50
2022-09-26T20:09:18.748Z,21.17
2022-09-26T20:11:45.445Z,22.90
2022-09-26T20:14:24.445Z,18.58
2022-09-26T20:17:01.967Z,18.17
2022-09-26T20:19:37.856Z,20.55
2022-09-26T20:22:06.009Z,18.70
2022-09-26T20:24:33.383Z,17.92
2022-09-26T20:27:01.720Z,15.00
2022-09-26T20:29:28.426Z,15.60
2022-09-26T20:31:55.256Z,16.40
2022-09-26T20:34:21.989Z,17.95
2022-09-26T20:36:49.494Z,16.67
2022-09-26T20:39:18.745Z,20.90
2022-09-26T20:41:45.326Z,14.60
2022-09-26T20:44:17.946Z,15.65
2022-09-26T20:46:49.758Z,11.40
2022-09-26T20:49:19.739Z,13.15
2022-09-26T20:51:46.296Z,10.52
2022-09-26T20:54:32.343Z,12.05
2022-09-26T20:56:59.024Z,10.70
2022-09-26T20:59:25.768Z,13.95
2022-09-26T21:01:53.132Z,11.23
2022-09-26T21:04:20.372Z,11.73
2022-09-26T21:06:46.942Z,14.85
2022-09-26T21:09:18.734Z,14.82
2022-09-26T21:11:48.885Z,11.80
2022-09-26T21:14:16.332Z,12.55
2022-09-26T21:16:47.008Z,12.80
2022-09-26T21:19:18.447Z,14.30
2022-09-26T21:21:44.995Z,13.02
2022-09-26T21:24:15.210Z,18.27
2022-09-26T21:26:41.775Z,9.52
2022-09-26T21:29:12.744Z,12.85
2022-09-26T21:31:39.360Z,12.75
2022-09-26T21:34:05.924Z,13.45
2022-09-26T21:36:35.084Z,13.68
2022-09-26T21:39:01.927Z,13.98
2022-09-26T21:41:29.375Z,12.23
2022-09-26T21:44:01.814Z,14.70
2022-09-26T21:46:28.420Z,13.43
2022-09-26T21:48:55.526Z,13.38
2022-09-26T21:51:22.686Z,11.20
2022-09-26T21:53:54.052Z,19.23
2022-09-26T21:56:22.617Z,17.42
2022-09-26T21:58:49.179Z,17.92
2022-09-26T22:01:15.792Z,20.83
2022-09-26T22:03:42.359Z,13.98
2022-09-26T22:06:11.699Z,35.63
2022-09-26T22:08:39.299Z,17.77
2022-09-26T22:11:06.701Z,17.25
2022-09-26T22:13:35.138Z,13.90
2022-09-26T22:16:09.866Z,17.48
2022-09-26T22:18:37.202Z,14.23
2022-09-26T22:21:04.731Z,15.90
2022-09-26T22:23:34.444Z,14.23
2022-09-26T22:26:01.006Z,14.93
2022-09-26T22:28:27.575Z,12.75
2022-09-26T22:30:56.871Z,16.15
2022-09-26T22:33:23.504Z,11.43
2022-09-26T22:35:50.496Z,14.43
2022-09-26T22:38:18.159Z,16.12
2022-09-26T22:43:11.416Z,16.10
2022-09-26T22:45:37.973Z,14.38
2022-09-26T22:48:04.495Z,13.98
2022-09-26T22:50:31.035Z,13.80
2022-09-26T22:52:59.145Z,14.90
2022-09-26T22:55:25.694Z,15.63
2022-09-26T22:57:52.507Z,13.50
2022-09-26T23:00:19.065Z,18.50
2022-09-26T23:02:45.670Z,16.67
2022-09-26T23:05:12.254Z,20.35
2022-09-26T23:07:38.773Z,22.08
2022-09-26T23:10:05.564Z,15.40
2022-09-26T23:12:32.513Z,15.93
2022-09-26T23:14:59.091Z,17.95
2022-09-26T23:17:25.688Z,15.55
2022-09-26T23:19:52.443Z,15.52
2022-09-26T23:22:19.009Z,15.95
2022-09-26T23:24:45.553Z,18.37
2022-09-26T23:27:12.108Z,18.40
2022-09-26T23:29:38.630Z,14.00
2022-09-26T23:32:05.195Z,25.35
2022-09-26T23:34:31.769Z,16.85
2022-09-26T23:36:58.301Z,15.52
2022-09-26T23:39:24.880Z,16.90
2022-09-26T23:41:51.624Z,16.75
2022-09-26T23:44:18.149Z,18.33
2022-09-26T23:46:44.663Z,18.70
2022-09-26T23:49:11.187Z,16.92
2022-09-26T23:51:37.724Z,16.67
2022-09-26T23:54:04.374Z,17.80
2022-09-26T23:56:30.891Z,16.52
2022-09-26T23:58:57.596Z,19.80
